Погода Куадрана 2 недели

Сан-Паулу, Бразилия

22 июля-03 августа
  • 22июля
    Сегодня
    +17°
    +31°
    Ясно и безоблачно
    ВремяПогодаТемператураВлажностьДавлениеВетер, м/сВероятность осадков
    00:00Ясно и безоблачно+20°C51 %718 мм2.9 м/с5 %
    03:00Ясно и безоблачно+19°C50 %717 мм2.8 м/с5 %
    06:00Ясно и безоблачно+17°C64 %717 мм2.2 м/с5 %
    09:00Ясно и безоблачно+22°C50 %720 мм2.5 м/с5 %
    12:00Ясно и безоблачно+28°C27 %720 мм1.7 м/с5 %
    15:00Ясно и безоблачно+30°C24 %718 мм1.0 м/с5 %
    18:00Ясно и безоблачно+26°C32 %718 мм2.1 м/с5 %
    21:00Ясно и безоблачно+23°C43 %718 мм2.9 м/с5 %
  • 23июля
    Вторник
    +17°
    +32°
    Практически безоблачно
    ВремяПогодаТемператураВлажностьДавлениеВетер, м/сВероятность осадков
    00:00Ясно и безоблачно+21°C44 %719 мм3.2 м/с5 %
    03:00Ясно и безоблачно+19°C53 %718 мм3.6 м/с5 %
    06:00Ясно и безоблачно+18°C58 %718 мм3.6 м/с5 %
    09:00Ясно и безоблачно+21°C44 %720 мм3.0 м/с5 %
    12:00Ясно и безоблачно+28°C26 %720 мм3.2 м/с5 %
    15:00Практически безоблачно+31°C22 %718 мм2.2 м/с5 %
    18:00Ясно и безоблачно+26°C33 %717 мм2.5 м/с5 %
    21:00Ясно и безоблачно+23°C41 %718 мм3.8 м/с5 %
  • 24июля
    Среда
    +17°
    +31°
    Облачно с прояснениями
    ВремяПогодаТемператураВлажностьДавлениеВетер, м/сВероятность осадков
    00:00Практически безоблачно+21°C43 %718 мм4.1 м/с5 %
    03:00Ясно и безоблачно+19°C45 %717 мм4.3 м/с5 %
    06:00Практически безоблачно+18°C49 %717 мм4.2 м/с5 %
    09:00Практически безоблачно+22°C41 %719 мм3.9 м/с5 %
    12:00Небольшая облачность+29°C25 %719 мм4.5 м/с5 %
    15:00Облачно с прояснениями+31°C23 %718 мм2.8 м/с5 %
    18:00Ясно и безоблачно+27°C35 %717 мм2.4 м/с5 %
    21:00Ясно и безоблачно+25°C36 %718 мм2.9 м/с5 %
  • 25июля
    Четверг
    +19°
    +32°
    Ясно и безоблачно
    ВремяПогодаТемператураВлажностьДавлениеВетер, м/сВероятность осадков
    00:00Ясно и безоблачно+23°C42 %718 мм3.0 м/с5 %
    03:00Ясно и безоблачно+20°C50 %717 мм2.3 м/с5 %
    06:00Ясно и безоблачно+18°C56 %717 мм2.3 м/с5 %
    09:00Ясно и безоблачно+23°C43 %718 мм3.0 м/с5 %
    12:00Ясно и безоблачно+30°C27 %718 мм3.1 м/с5 %
    15:00Ясно и безоблачно+32°C23 %716 мм2.3 м/с5 %
    18:00Ясно и безоблачно+29°C30 %716 мм1.2 м/с5 %
    21:00Ясно и безоблачно+24°C43 %715 мм1.6 м/с5 %
Мы используем cookies
Соглашаюсь